Webcam & Weather

This webcam image will automatically refresh every 15 seconds.


METAR and TAF for EGLL Heathrow (12 Nautical Miles East of White Waltham)

Available data for EGLL from the past hour
LONDON/HEATHROW
Metar
EGLL 160120Z AUTO 22009KT 9999 SCT035 09/06 Q1012 NOSIG

01:20 UTC

Wind: 220° 9kt

Visibility: 9999 m

Sky: SCT 3500 ft

Temp: 9 deg C / 48.2 deg F

Dewpoint: 6 deg C / 42.8 deg F

Pressure: 1012 hPa

TAF
TAF EGLL 152302Z 1600/1706 22012KT 9999 BKN030 TEMPO 1600/1616 BKN012 PROB40 TEMPO 1607/1616 4000 RADZ BKN008 TEMPO 1610/1616 23016G26KT BECMG 1615/1618 28010KT FEW030

Play 24 hour timelapse | Play 30 day timelapse

Comments are closed.